createdAt,value
2018-06-20T00:00:00.839Z,14.4
2018-06-20T00:00:50.925Z,14.3
2018-06-20T00:01:40.969Z,14.3
2018-06-20T00:02:31.069Z,14.4
2018-06-20T00:03:21.100Z,14.3
2018-06-20T00:04:10.886Z,14.3
2018-06-20T00:05:00.657Z,14.3
2018-06-20T00:05:51.298Z,14.3
2018-06-20T00:06:41.392Z,14.3
2018-06-20T00:07:31.176Z,14.3
2018-06-20T00:08:20.931Z,14.3
2018-06-20T00:09:11.278Z,14.3
2018-06-20T00:10:01.332Z,14.3
2018-06-20T00:10:51.697Z,14.2
2018-06-20T00:11:41.752Z,14.2
2018-06-20T00:12:31.543Z,14.2
2018-06-20T00:13:21.883Z,14.2
2018-06-20T00:14:11.382Z,14.1
2018-06-20T00:15:01.783Z,14.1
2018-06-20T00:15:52.060Z,14.1
2018-06-20T00:16:41.877Z,14.1
2018-06-20T00:17:31.967Z,14.1
2018-06-20T00:18:21.977Z,14.1
2018-06-20T00:19:11.752Z,14.1
2018-06-20T00:20:02.409Z,14.1
2018-06-20T00:20:52.442Z,14.1
2018-06-20T00:21:42.023Z,14.1
2018-06-20T00:22:32.290Z,14.1
2018-06-20T00:23:22.645Z,14.1
2018-06-20T00:24:12.414Z,14
2018-06-20T00:25:02.849Z,14
2018-06-20T00:25:52.842Z,14
2018-06-20T00:26:42.889Z,13.9
2018-06-20T00:27:32.966Z,13.9
2018-06-20T00:28:21.917Z,13.9
2018-06-20T00:29:13.116Z,13.9
2018-06-20T00:30:03.140Z,13.9
2018-06-20T00:30:52.945Z,13.9
2018-06-20T00:31:42.996Z,13.8
2018-06-20T00:32:32.584Z,13.8
2018-06-20T00:33:23.411Z,13.8
2018-06-20T00:34:13.216Z,13.8
2018-06-20T00:35:03.269Z,13.8
2018-06-20T00:35:53.618Z,13.8
2018-06-20T00:36:43.672Z,13.7
2018-06-20T00:37:33.769Z,13.7
2018-06-20T00:38:23.502Z,13.7
2018-06-20T00:39:13.857Z,13.6
2018-06-20T00:40:03.975Z,13.6
2018-06-20T00:40:53.953Z,13.6
2018-06-20T00:41:44.033Z,13.6
2018-06-20T00:42:33.818Z,13.6
2018-06-20T00:43:24.172Z,13.6
2018-06-20T00:44:14.274Z,13.6
2018-06-20T00:45:04.330Z,13.5
2018-06-20T00:45:54.084Z,13.5
2018-06-20T00:46:44.137Z,13.4
2018-06-20T00:47:34.477Z,13.4
2018-06-20T00:48:24.303Z,13.4
2018-06-20T00:49:14.610Z,13.4
2018-06-20T00:50:04.402Z,13.4
2018-06-20T00:50:54.753Z,13.4
2018-06-20T00:51:44.853Z,13.3
2018-06-20T00:52:34.860Z,13.3
2018-06-20T00:53:24.930Z,13.3
2018-06-20T00:54:14.419Z,13.3
2018-06-20T00:55:04.515Z,13.3
2018-06-20T00:55:55.130Z,13.3
2018-06-20T00:56:44.903Z,13.2
2018-06-20T00:57:34.700Z,13.2
2018-06-20T00:58:25.300Z,13.2
2018-06-20T00:59:15.095Z,13.2
2018-06-20T01:00:05.164Z,13.2
2018-06-20T01:00:55.517Z,13.1
2018-06-20T01:01:45.352Z,13.1
2018-06-20T01:02:35.345Z,13.1
2018-06-20T01:03:25.707Z,13.1
2018-06-20T01:04:15.762Z,13.1
2018-06-20T01:05:05.535Z,13.1
2018-06-20T01:05:55.875Z,13
2018-06-20T01:06:45.945Z,13
2018-06-20T01:07:36.092Z,13
2018-06-20T01:08:26.065Z,13
2018-06-20T01:09:16.132Z,13
2018-06-20T01:10:05.916Z,12.9
2018-06-20T01:10:55.999Z,12.9
2018-06-20T01:11:47.262Z,12.9
2018-06-20T01:12:36.384Z,12.9
2018-06-20T01:13:26.181Z,12.9
2018-06-20T01:14:16.504Z,12.9
2018-06-20T01:15:06.313Z,12.9
2018-06-20T01:15:56.634Z,12.9
2018-06-20T01:16:46.455Z,12.9
2018-06-20T01:17:36.759Z,12.9
2018-06-20T01:19:16.902Z,12.9
2018-06-20T01:20:06.691Z,12.9
2018-06-20T01:20:57.013Z,12.9
2018-06-20T01:21:47.078Z,12.9
2018-06-20T01:22:37.190Z,12.9
2018-06-20T01:23:27.202Z,12.9
2018-06-20T01:24:17.275Z,12.9
2018-06-20T01:25:07.360Z,12.9
2018-06-20T01:25:57.408Z,12.9
2018-06-20T01:26:47.491Z,12.9
2018-06-20T01:27:36.717Z,13
2018-06-20T01:28:27.316Z,13
2018-06-20T01:29:17.103Z,12.9
2018-06-20T01:30:07.741Z,12.9
2018-06-20T01:30:57.231Z,13
2018-06-20T01:31:47.863Z,13
2018-06-20T01:32:37.935Z,13
2018-06-20T01:33:27.982Z,13
2018-06-20T01:34:18.062Z,13
2018-06-20T01:35:07.843Z,13
2018-06-20T01:35:58.171Z,13
2018-06-20T01:36:48.288Z,12.9
2018-06-20T01:37:38.031Z,13
2018-06-20T01:38:28.081Z,13
2018-06-20T01:39:18.417Z,13
2018-06-20T01:40:08.221Z,13
2018-06-20T01:40:58.571Z,13
2018-06-20T01:41:48.640Z,13
2018-06-20T01:42:38.698Z,13
2018-06-20T01:43:28.755Z,13
2018-06-20T01:44:18.800Z,13
2018-06-20T01:45:08.865Z,13
2018-06-20T01:45:58.949Z,13
2018-06-20T01:46:48.748Z,13
2018-06-20T01:47:39.057Z,13
2018-06-20T01:48:28.886Z,13
2018-06-20T01:49:19.207Z,13
2018-06-20T01:50:08.982Z,13
2018-06-20T01:50:59.055Z,13
2018-06-20T01:51:49.090Z,13
2018-06-20T01:52:39.195Z,12.9
2018-06-20T01:53:29.240Z,12.9
2018-06-20T01:54:19.290Z,12.9
2018-06-20T01:55:09.078Z,12.9
2018-06-20T01:55:59.787Z,12.9
2018-06-20T01:56:49.484Z,12.9
2018-06-20T01:57:39.273Z,12.9
2018-06-20T01:58:29.888Z,12.9
2018-06-20T01:59:19.112Z,12.9
2018-06-20T02:00:09.750Z,12.9
2018-06-20T02:01:00.079Z,12.9
2018-06-20T02:01:50.138Z,12.9
2018-06-20T02:02:39.655Z,12.9
2018-06-20T02:03:30.290Z,12.9
2018-06-20T02:04:20.075Z,12.9
2018-06-20T02:05:10.112Z,12.9
2018-06-20T02:05:59.926Z,12.8
2018-06-20T02:06:50.565Z,12.8
2018-06-20T02:07:40.584Z,12.8
2018-06-20T02:08:30.682Z,12.8
2018-06-20T02:09:20.734Z,12.8
2018-06-20T02:10:10.872Z,12.8
2018-06-20T02:11:00.846Z,12.8
2018-06-20T02:11:50.650Z,12.8
2018-06-20T02:12:40.725Z,12.8
2018-06-20T02:13:30.755Z,12.8
2018-06-20T02:14:20.527Z,12.7
2018-06-20T02:15:10.884Z,12.7
2018-06-20T02:16:01.217Z,12.7
2018-06-20T02:16:51.009Z,12.7
2018-06-20T02:17:41.363Z,12.7
2018-06-20T02:18:31.433Z,12.7
2018-06-20T02:19:21.490Z,12.6
2018-06-20T02:20:11.551Z,12.6
2018-06-20T02:21:01.605Z,12.6
2018-06-20T02:21:51.425Z,12.6
2018-06-20T02:22:41.459Z,12.6
2018-06-20T02:23:31.812Z,12.6
2018-06-20T02:24:21.581Z,12.6
2018-06-20T02:25:11.918Z,12.6
2018-06-20T02:26:01.442Z,12.6
2018-06-20T02:26:52.054Z,12.6
2018-06-20T02:27:42.130Z,12.5
2018-06-20T02:28:32.162Z,12.5
2018-06-20T02:29:22.232Z,12.5
2018-06-20T02:30:11.755Z,12.5
2018-06-20T02:31:02.139Z,12.5
2018-06-20T02:31:52.174Z,12.5
2018-06-20T02:32:42.224Z,12.5
2018-06-20T02:33:32.282Z,12.4
2018-06-20T02:34:22.351Z,12.4
2018-06-20T02:35:12.170Z,12.4
2018-06-20T02:36:02.479Z,12.4
2018-06-20T02:36:52.552Z,12.4
2018-06-20T02:37:42.326Z,12.4
2018-06-20T02:38:32.948Z,12.4
2018-06-20T02:39:22.740Z,12.4
2018-06-20T02:40:12.818Z,12.3
2018-06-20T02:41:03.145Z,12.3
2018-06-20T02:41:52.953Z,12.3
2018-06-20T02:42:43.293Z,12.3
2018-06-20T02:43:33.063Z,12.3
2018-06-20T02:44:23.116Z,12.3
2018-06-20T02:45:13.467Z,12.3
2018-06-20T02:46:03.539Z,12.3
2018-06-20T02:46:53.614Z,12.3
2018-06-20T02:47:43.715Z,12.3
2018-06-20T02:48:33.449Z,12.3
2018-06-20T02:49:23.766Z,12.3
2018-06-20T02:50:13.549Z,12.3
2018-06-20T02:51:03.915Z,12.3
2018-06-20T02:51:53.965Z,12.3
2018-06-20T02:52:44.324Z,12.3
2018-06-20T02:53:34.108Z,12.3
2018-06-20T02:54:24.131Z,12.3
2018-06-20T02:55:14.256Z,12.3
2018-06-20T02:56:04.014Z,12.2
2018-06-20T02:56:54.051Z,12.2
2018-06-20T02:57:44.136Z,12.3
2018-06-20T02:58:34.451Z,12.3
2018-06-20T02:59:24.522Z,12.3
2018-06-20T03:00:14.324Z,12.3
2018-06-20T03:01:04.707Z,12.3
2018-06-20T03:01:54.716Z,12.3
2018-06-20T03:02:44.773Z,12.3
2018-06-20T03:03:34.860Z,12.3
2018-06-20T03:04:24.911Z,12.3
2018-06-20T03:05:14.428Z,12.3
2018-06-20T03:06:05.066Z,12.3
2018-06-20T03:06:55.120Z,12.3
2018-06-20T03:07:45.173Z,12.3
2018-06-20T03:08:34.960Z,12.3
2018-06-20T03:09:24.747Z,12.3
2018-06-20T03:10:15.357Z,12.3
2018-06-20T03:11:05.435Z,12.3
2018-06-20T03:11:54.921Z,12.3
2018-06-20T03:12:45.602Z,12.4
2018-06-20T03:13:35.597Z,12.4
2018-06-20T03:14:25.667Z,12.4
2018-06-20T03:15:15.738Z,12.4
2018-06-20T03:16:05.546Z,12.4
2018-06-20T03:16:55.315Z,12.4
2018-06-20T03:17:45.658Z,12.4
2018-06-20T03:18:35.440Z,12.4
2018-06-20T03:19:26.068Z,12.5
2018-06-20T03:20:16.097Z,12.5
2018-06-20T03:21:06.201Z,12.5
2018-06-20T03:21:55.975Z,12.5
2018-06-20T03:22:46.303Z,12.6
2018-06-20T03:23:36.391Z,12.6
2018-06-20T03:24:26.439Z,12.6
2018-06-20T03:25:16.342Z,12.6
2018-06-20T03:26:06.570Z,12.6
2018-06-20T03:26:56.607Z,12.6
2018-06-20T03:27:46.125Z,12.6
2018-06-20T03:28:36.742Z,12.7
2018-06-20T03:29:26.864Z,12.7
2018-06-20T03:30:15.752Z,12.8
2018-06-20T03:31:06.962Z,12.8
2018-06-20T03:31:56.427Z,12.8
2018-06-20T03:32:46.809Z,12.8
2018-06-20T03:33:37.122Z,12.8
2018-06-20T03:34:26.939Z,12.9
2018-06-20T03:35:17.323Z,12.9
2018-06-20T03:36:07.303Z,12.9
2018-06-20T03:36:57.415Z,12.9
2018-06-20T03:37:47.456Z,13
2018-06-20T03:38:37.516Z,13
2018-06-20T03:39:26.751Z,13
2018-06-20T03:40:17.349Z,13.1
2018-06-20T03:41:07.424Z,13.1
2018-06-20T03:41:57.474Z,13.1
2018-06-20T03:42:47.559Z,13.1
2018-06-20T03:43:37.913Z,13.2
2018-06-20T03:44:27.399Z,13.2
2018-06-20T03:45:17.458Z,13.2
2018-06-20T03:46:07.536Z,13.3
2018-06-20T03:46:57.581Z,13.3
2018-06-20T03:47:47.927Z,13.3
2018-06-20T03:48:37.724Z,13.3
2018-06-20T03:49:28.327Z,13.3
2018-06-20T03:50:18.107Z,13.4
2018-06-20T03:51:08.191Z,13.4
2018-06-20T03:51:58.545Z,13.4
2018-06-20T03:52:48.598Z,13.4
2018-06-20T03:53:38.376Z,13.4
2018-06-20T03:54:28.443Z,13.5
2018-06-20T03:55:18.765Z,13.5
2018-06-20T03:56:08.872Z,13.5
2018-06-20T03:56:58.648Z,13.6
2018-06-20T03:57:48.963Z,13.6
2018-06-20T03:58:39.039Z,13.6
2018-06-20T03:59:29.079Z,13.7
2018-06-20T04:00:18.595Z,13.7
2018-06-20T04:01:08.919Z,13.8
2018-06-20T04:01:59.019Z,13.8
2018-06-20T04:02:49.086Z,13.9
2018-06-20T04:03:39.438Z,13.9
2018-06-20T04:04:29.479Z,13.9
2018-06-20T04:05:19.552Z,14.1
2018-06-20T04:06:09.660Z,14.1
2018-06-20T04:06:59.652Z,14.1
2018-06-20T04:07:49.460Z,14.2
2018-06-20T04:08:39.015Z,14.3
2018-06-20T04:09:29.877Z,14.3
2018-06-20T04:10:19.677Z,14.4
2018-06-20T04:11:09.980Z,14.4
2018-06-20T04:12:00.032Z,14.5
2018-06-20T04:12:51.029Z,14.6
2018-06-20T04:13:40.171Z,14.6
2018-06-20T04:14:29.692Z,14.7
2018-06-20T04:15:20.020Z,14.8
2018-06-20T04:16:09.804Z,14.9
2018-06-20T04:17:00.169Z,14.9
2018-06-20T04:17:50.194Z,15
2018-06-20T04:18:40.292Z,15.1
2018-06-20T04:19:30.317Z,15.1
2018-06-20T04:20:20.686Z,15.2
2018-06-20T04:21:10.746Z,15.3
2018-06-20T04:22:00.808Z,15.3
2018-06-20T04:22:50.926Z,15.4
2018-06-20T04:23:40.935Z,15.4
2018-06-20T04:24:30.710Z,15.5
2018-06-20T04:25:20.500Z,15.6
2018-06-20T04:26:11.195Z,15.6
2018-06-20T04:27:01.183Z,15.7
2018-06-20T04:27:51.258Z,15.8
2018-06-20T04:28:41.305Z,15.9
2018-06-20T04:29:31.367Z,16
2018-06-20T04:30:21.152Z,16.1
2018-06-20T04:31:11.511Z,16.3
2018-06-20T04:32:01.575Z,16.4
2018-06-20T04:32:51.608Z,16.5
2018-06-20T04:33:41.705Z,16.7
2018-06-20T04:34:31.928Z,16.8
2018-06-20T04:36:11.620Z,17.2
2018-06-20T04:37:01.659Z,17.4
2018-06-20T04:37:51.999Z,17.6
2018-06-20T04:38:42.088Z,17.8
2018-06-20T04:39:32.146Z,18
2018-06-20T04:40:22.182Z,18.2
2018-06-20T04:41:12.243Z,18.4
2018-06-20T04:42:01.769Z,18.6
2018-06-20T04:42:52.109Z,18.9
2018-06-20T04:43:42.438Z,19.1
2018-06-20T04:44:32.013Z,19.4
2018-06-20T04:45:22.614Z,19.6
2018-06-20T04:46:12.384Z,19.8
2018-06-20T04:47:02.447Z,20.1
2018-06-20T04:47:52.488Z,20.3
2018-06-20T04:48:42.834Z,20.6
2018-06-20T04:49:32.346Z,20.9
2018-06-20T04:50:22.438Z,21.2
2018-06-20T04:51:13.054Z,21.4
2018-06-20T04:52:02.834Z,21.7
2018-06-20T04:52:52.039Z,21.9
2018-06-20T04:53:42.649Z,22.2
2018-06-20T04:54:33.308Z,22.4
2018-06-20T04:55:23.336Z,22.6
2018-06-20T04:56:13.156Z,22.9
2018-06-20T04:57:03.482Z,23.1
2018-06-20T04:57:53.556Z,23.4
2018-06-20T04:58:43.137Z,23.7
2018-06-20T04:59:33.666Z,24
2018-06-20T05:00:23.761Z,24.3
2018-06-20T05:01:13.804Z,24.6
2018-06-20T05:02:03.852Z,24.9
2018-06-20T05:02:53.638Z,25.2
2018-06-20T05:03:43.521Z,25.5
2018-06-20T05:04:34.068Z,25.8
2018-06-20T05:05:24.099Z,26
2018-06-20T05:06:13.361Z,26.3
2018-06-20T05:07:03.788Z,26.6
2018-06-20T05:07:54.051Z,26.9
2018-06-20T05:08:44.405Z,27.3
2018-06-20T05:09:34.436Z,27.6
2018-06-20T05:10:24.223Z,27.9
2018-06-20T05:11:14.566Z,28.3
2018-06-20T05:12:04.655Z,28.6
2018-06-20T05:12:54.133Z,28.9
2018-06-20T05:13:44.817Z,29.1
2018-06-20T05:14:34.573Z,29.3
2018-06-20T05:15:24.599Z,29.4
2018-06-20T05:16:14.643Z,29.6
2018-06-20T05:17:04.737Z,29.7
2018-06-20T05:17:55.080Z,29.9
2018-06-20T05:18:45.143Z,30.1
2018-06-20T05:19:35.191Z,30.3
2018-06-20T05:20:24.978Z,30.6
2018-06-20T05:21:15.335Z,30.8
2018-06-20T05:22:04.830Z,31.2
2018-06-20T05:22:55.171Z,31.6
2018-06-20T05:23:45.256Z,31.9
2018-06-20T05:24:35.296Z,32.2
2018-06-20T05:25:25.375Z,32.4
2018-06-20T05:26:15.750Z,32.6
2018-06-20T05:27:05.528Z,32.8
2018-06-20T05:27:55.845Z,33
2018-06-20T05:28:45.901Z,33.3
2018-06-20T05:29:35.675Z,33.5
2018-06-20T05:30:26.028Z,33.7
2018-06-20T05:31:15.567Z,33.9
2018-06-20T05:32:06.162Z,34.3
2018-06-20T05:32:56.688Z,34.6
2018-06-20T05:33:46.277Z,35.1
2018-06-20T05:34:36.328Z,35.6
2018-06-20T05:35:26.403Z,36.1
2018-06-20T05:36:16.475Z,36.6
2018-06-20T05:37:06.247Z,37
2018-06-20T05:37:56.306Z,37.4
2018-06-20T05:38:46.673Z,37.8
2018-06-20T05:39:36.745Z,38.3
2018-06-20T05:40:26.795Z,38.8
2018-06-20T05:41:16.849Z,39.3
2018-06-20T05:42:06.929Z,39.8
2018-06-20T05:42:57.005Z,40.1
2018-06-20T05:43:46.751Z,40.4
2018-06-20T05:44:37.116Z,40.9
2018-06-20T05:45:26.899Z,41.3
2018-06-20T05:46:16.669Z,41.8
2018-06-20T05:47:07.318Z,42.3
2018-06-20T05:47:56.800Z,42.6
2018-06-20T05:48:47.153Z,42.9
2018-06-20T05:49:37.203Z,43
2018-06-20T05:50:27.553Z,43.1
2018-06-20T05:51:17.656Z,43.3
2018-06-20T05:52:07.698Z,43.3
2018-06-20T05:52:57.460Z,43.3
2018-06-20T05:53:47.747Z,43.1
2018-06-20T05:54:37.870Z,43
2018-06-20T05:55:27.943Z,42.9
2018-06-20T05:56:18.011Z,42.8
2018-06-20T05:57:08.093Z,42.6
2018-06-20T05:57:58.144Z,42.4
2018-06-20T05:58:48.008Z,42.4
2018-06-20T05:59:37.695Z,42.4
2018-06-20T06:00:28.309Z,42.3
2018-06-20T06:01:18.389Z,42.3
2018-06-20T06:02:07.885Z,42.4
2018-06-20T06:02:58.514Z,42.6
2018-06-20T06:03:48.294Z,42.8
2018-06-20T06:04:38.650Z,42.9
2018-06-20T06:05:28.742Z,43.1
2018-06-20T06:06:18.780Z,43.2
2018-06-20T06:07:08.833Z,43.1
2018-06-20T06:07:58.322Z,43
2018-06-20T06:08:48.677Z,42.9
2018-06-20T06:09:38.479Z,42.9
2018-06-20T06:11:18.187Z,42.8
2018-06-20T06:12:08.469Z,42.9
2018-06-20T06:12:58.558Z,43.2
2018-06-20T06:13:48.558Z,43.6
2018-06-20T06:14:38.647Z,43.9
2018-06-20T06:15:28.149Z,44.2
2018-06-20T06:16:18.780Z,44.4
2018-06-20T06:17:09.137Z,44.7
2018-06-20T06:17:58.628Z,45.1
2018-06-20T06:18:48.955Z,45.6
2018-06-20T06:19:39.023Z,46
2018-06-20T06:20:29.065Z,46.3
2018-06-20T06:21:19.139Z,46.4
2018-06-20T06:22:09.189Z,46.6
2018-06-20T06:22:58.979Z,46.7
2018-06-20T06:23:49.066Z,46.9
2018-06-20T06:24:39.421Z,47.1
2018-06-20T06:25:29.504Z,47.4
2018-06-20T06:26:19.524Z,47.7
2018-06-20T06:27:09.590Z,47.9
2018-06-20T06:27:59.379Z,48.1
2018-06-20T06:28:49.719Z,48.3
2018-06-20T06:29:39.760Z,48.4
2018-06-20T06:30:29.671Z,48.5
2018-06-20T06:31:19.618Z,48.6
2018-06-20T06:32:09.675Z,48.8
2018-06-20T06:33:00.040Z,48.9
2018-06-20T06:33:49.828Z,49
2018-06-20T06:34:40.156Z,49.1
2018-06-20T06:35:29.956Z,49.1
2018-06-20T06:36:20.292Z,49.1
2018-06-20T06:37:10.349Z,49.1
2018-06-20T06:38:00.159Z,49
2018-06-20T06:38:50.489Z,48.8
2018-06-20T06:39:40.567Z,48.6
2018-06-20T06:40:30.609Z,48.6
2018-06-20T06:41:20.691Z,48.8
2018-06-20T06:42:10.504Z,48.9
2018-06-20T06:43:00.795Z,49.1
2018-06-20T06:43:50.322Z,49.3
2018-06-20T06:44:40.954Z,49.5
2018-06-20T06:45:30.978Z,49.7
2018-06-20T06:46:21.102Z,49.8
2018-06-20T06:47:10.857Z,50
2018-06-20T06:48:00.944Z,50.3
2018-06-20T06:48:51.251Z,50.6
2018-06-20T06:49:41.861Z,50.8
2018-06-20T06:50:31.086Z,51.1
2018-06-20T06:51:21.155Z,51.4
2018-06-20T06:52:11.521Z,52.1
2018-06-20T06:53:01.556Z,53
2018-06-20T06:53:51.622Z,54.2
2018-06-20T06:54:41.435Z,55.4
2018-06-20T06:55:31.753Z,57.2
2018-06-20T06:56:21.548Z,59.4
2018-06-20T06:57:11.876Z,58.1
2018-06-20T06:58:02.000Z,55.3
2018-06-20T06:58:52.029Z,48.6
2018-06-20T06:59:41.525Z,42.5
2018-06-20T07:00:32.167Z,40
2018-06-20T07:01:22.224Z,39.3
2018-06-20T07:02:12.284Z,39.8
2018-06-20T07:03:02.097Z,40.9
2018-06-20T07:03:52.449Z,42.2
2018-06-20T07:04:42.212Z,43.6
2018-06-20T07:05:32.304Z,45.2
2018-06-20T07:06:22.323Z,46.9
2018-06-20T07:07:12.660Z,48.6
2018-06-20T07:08:02.444Z,50.4
2018-06-20T07:08:51.939Z,52
2018-06-20T07:09:42.583Z,53.6
2018-06-20T07:10:32.929Z,55.1
2018-06-20T07:11:22.714Z,57.4
2018-06-20T07:12:12.772Z,59.4
2018-06-20T07:13:03.098Z,57.9
2018-06-20T07:13:52.619Z,57
2018-06-20T07:14:43.249Z,55.2
2018-06-20T07:15:33.873Z,52.3
2018-06-20T07:16:23.393Z,49.6
2018-06-20T07:17:12.884Z,49.3
2018-06-20T07:18:03.221Z,50.6
2018-06-20T07:18:53.538Z,52.2
2018-06-20T07:19:43.376Z,53.3
2018-06-20T07:20:33.152Z,53.6
2018-06-20T07:21:23.751Z,53.4
2018-06-20T07:22:13.832Z,52.9
2018-06-20T07:23:03.615Z,52.5
2018-06-20T07:23:53.699Z,52.6
2018-06-20T07:24:43.735Z,53.1
2018-06-20T07:25:34.136Z,53.6
2018-06-20T07:26:23.853Z,54.1
2018-06-20T07:27:14.227Z,54.3
2018-06-20T07:28:03.982Z,54.4
2018-06-20T07:28:54.094Z,54.5
2018-06-20T07:29:44.472Z,54.4
2018-06-20T07:30:33.897Z,54.4
2018-06-20T07:31:24.245Z,54.7
2018-06-20T07:32:14.602Z,55
2018-06-20T07:33:04.671Z,55.4
2018-06-20T07:33:54.723Z,55.6
2018-06-20T07:34:44.236Z,55.8
2018-06-20T07:35:35.610Z,55.8
2018-06-20T07:36:24.990Z,55.9
2018-06-20T07:37:14.510Z,55.9
2018-06-20T07:38:05.055Z,56
2018-06-20T07:38:55.109Z,56
2018-06-20T07:39:44.694Z,56.2
2018-06-20T07:40:34.713Z,56.4
2018-06-20T07:41:25.286Z,56.6
2018-06-20T07:42:15.356Z,56.6
2018-06-20T07:43:05.426Z,56.8
2018-06-20T07:43:55.219Z,56.9
2018-06-20T07:44:45.297Z,57.2
2018-06-20T07:45:35.343Z,57.4
2018-06-20T07:46:25.665Z,57.6
2018-06-20T07:47:15.743Z,57.9
2018-06-20T07:48:05.246Z,58
2018-06-20T07:48:55.872Z,58.3
2018-06-20T07:49:45.922Z,58.4
2018-06-20T07:51:25.774Z,58.8
2018-06-20T07:52:16.131Z,58.9
2018-06-20T07:53:05.922Z,59.1
2018-06-20T07:53:56.301Z,59.3
2018-06-20T07:54:46.045Z,59.5
2018-06-20T07:55:36.420Z,59.7
2018-06-20T07:56:26.181Z,59.8
2018-06-20T07:57:16.547Z,59.9
2018-06-20T07:58:06.586Z,59.9
2018-06-20T07:58:56.359Z,59.9
2018-06-20T07:59:46.695Z,59.9
2018-06-20T08:00:36.995Z,60.1
2018-06-20T08:01:26.312Z,60.3
2018-06-20T08:02:16.903Z,60.5
2018-06-20T08:03:06.985Z,60.6
2018-06-20T08:03:57.023Z,60.6
2018-06-20T08:04:47.139Z,60.8
2018-06-20T08:05:37.160Z,60.9
2018-06-20T08:06:27.777Z,61
2018-06-20T08:07:17.012Z,61.1
2018-06-20T08:08:07.365Z,61.3
2018-06-20T08:08:57.420Z,61.4
2018-06-20T08:09:47.502Z,61.6
2018-06-20T08:10:36.989Z,61.6
2018-06-20T08:11:27.150Z,61.8
2018-06-20T08:12:17.701Z,61.9
2018-06-20T08:13:07.737Z,62.1
2018-06-20T08:13:57.815Z,62.2
2018-06-20T08:14:46.927Z,62.4
2018-06-20T08:15:37.931Z,62.6
2018-06-20T08:16:28.008Z,62.8
2018-06-20T08:17:17.868Z,62.9
2018-06-20T08:18:07.551Z,62.8
2018-06-20T08:18:57.715Z,62.8
2018-06-20T08:19:47.981Z,62.9
2018-06-20T08:20:37.822Z,63.1
2018-06-20T08:21:28.133Z,63.3
2018-06-20T08:22:18.490Z,63.4
2018-06-20T08:23:08.490Z,63.6
2018-06-20T08:23:58.593Z,63.9
2018-06-20T08:24:48.086Z,63.9
2018-06-20T08:25:38.820Z,63.9
2018-06-20T08:26:28.758Z,64.1
2018-06-20T08:27:18.553Z,64.3
2018-06-20T08:28:08.061Z,64.3
2018-06-20T08:28:58.965Z,64.4
2018-06-20T08:29:49.011Z,64.4
2018-06-20T08:30:39.087Z,64.5
2018-06-20T08:31:28.614Z,64.6
2018-06-20T08:32:19.244Z,64.5
2018-06-20T08:33:08.985Z,64.5
2018-06-20T08:33:59.346Z,64.6
2018-06-20T08:34:49.181Z,64.8
2018-06-20T08:35:39.481Z,64.9
2018-06-20T08:36:29.564Z,65.1
2018-06-20T08:37:19.052Z,65.2
2018-06-20T08:38:09.683Z,65.3
2018-06-20T08:38:59.730Z,65.3
2018-06-20T08:39:49.801Z,65.4
2018-06-20T08:40:39.866Z,65.6
2018-06-20T08:41:29.933Z,65.7
2018-06-20T08:42:20.240Z,65.7
2018-06-20T08:43:10.080Z,65.6
2018-06-20T08:44:00.124Z,65.7
2018-06-20T08:44:50.184Z,65.8
2018-06-20T08:45:40.242Z,65.9
2018-06-20T08:46:30.305Z,66.1
2018-06-20T08:47:20.389Z,66.2
2018-06-20T08:48:10.182Z,66.3
2018-06-20T08:49:00.523Z,66.4
2018-06-20T08:49:50.606Z,66.5
2018-06-20T08:50:40.620Z,66.6
2018-06-20T08:51:30.720Z,66.4
2018-06-20T08:52:20.787Z,66.6
2018-06-20T08:53:10.655Z,66.6
2018-06-20T08:54:00.608Z,66.7
2018-06-20T08:54:50.966Z,66.9
2018-06-20T08:55:41.048Z,66.9
2018-06-20T08:56:30.822Z,67.1
2018-06-20T08:57:21.183Z,67.3
2018-06-20T08:58:10.663Z,67.3
2018-06-20T08:59:01.002Z,67.4
2018-06-20T08:59:51.362Z,67.6
2018-06-20T09:00:41.402Z,67.8
2018-06-20T09:01:31.464Z,67.8
2018-06-20T09:02:21.566Z,67.9
2018-06-20T09:03:11.596Z,67.9
2018-06-20T09:04:01.666Z,67.9
2018-06-20T09:04:51.446Z,67.8
2018-06-20T09:05:41.525Z,67.9
2018-06-20T09:06:31.878Z,67.9
2018-06-20T09:07:21.668Z,67.9
2018-06-20T09:08:11.716Z,68.1
2018-06-20T09:09:02.116Z,68.1
2018-06-20T09:09:52.125Z,68.1
2018-06-20T09:10:41.902Z,68.3
2018-06-20T09:11:32.253Z,68.4
2018-06-20T09:12:22.036Z,68.6
2018-06-20T09:13:12.383Z,68.2
2018-06-20T09:14:02.164Z,66.4
2018-06-20T09:14:52.506Z,64.7
2018-06-20T09:15:42.314Z,64.2
2018-06-20T09:16:32.368Z,63.9
2018-06-20T09:17:22.453Z,64.3
2018-06-20T09:18:12.248Z,65.7
2018-06-20T09:19:02.598Z,66.7
2018-06-20T09:19:52.200Z,67.3
2018-06-20T09:20:42.978Z,67.3
2018-06-20T09:21:32.477Z,66.9
2018-06-20T09:22:22.849Z,66.8
2018-06-20T09:23:13.187Z,66.8
2018-06-20T09:24:02.477Z,67.1
2018-06-20T09:24:53.308Z,67.3
2018-06-20T09:25:43.060Z,66.9
2018-06-20T09:26:33.182Z,66.9
2018-06-20T09:27:22.735Z,66.4
2018-06-20T09:28:13.325Z,66
2018-06-20T09:29:03.352Z,66
2018-06-20T09:29:53.437Z,66.3
2018-06-20T09:30:43.466Z,67.3
2018-06-20T09:31:33.811Z,68.1
2018-06-20T09:32:23.391Z,68.6
2018-06-20T09:33:13.667Z,68.8
2018-06-20T09:34:04.010Z,68.9
2018-06-20T09:34:53.496Z,68.9
2018-06-20T09:35:43.862Z,69.2
2018-06-20T09:36:34.212Z,69.7
2018-06-20T09:37:24.279Z,70.1
2018-06-20T09:38:14.338Z,70.2
2018-06-20T09:39:04.120Z,70.4
2018-06-20T09:39:54.469Z,70.4
2018-06-20T09:40:44.259Z,70.4
2018-06-20T09:41:34.663Z,70.5
2018-06-20T09:42:24.661Z,70.7
2018-06-20T09:43:14.702Z,70.9
2018-06-20T09:44:04.798Z,71.2
2018-06-20T09:44:54.865Z,71.2
2018-06-20T09:45:44.644Z,71.3
2018-06-20T09:46:34.709Z,71.4
2018-06-20T09:47:24.832Z,71.4
2018-06-20T09:48:15.118Z,71.5
2018-06-20T09:49:05.175Z,71.5
2018-06-20T09:49:55.248Z,71.6
2018-06-20T09:50:45.034Z,71.6
2018-06-20T09:51:35.089Z,70.4
2018-06-20T09:52:25.430Z,68.1
2018-06-20T09:53:15.482Z,65.9
2018-06-20T09:54:05.547Z,64.1
2018-06-20T09:54:55.357Z,62.9
2018-06-20T09:55:45.687Z,62.4
2018-06-20T09:56:35.842Z,61.9
2018-06-20T09:57:25.831Z,61.4
2018-06-20T09:58:15.342Z,61.2
2018-06-20T09:59:05.499Z,61.3
2018-06-20T09:59:56.038Z,62.4
2018-06-20T10:00:46.113Z,63.6
2018-06-20T10:01:36.634Z,64
2018-06-20T10:02:26.240Z,63.8
2018-06-20T10:03:16.292Z,64.3
2018-06-20T10:04:06.079Z,64.7
2018-06-20T10:04:56.411Z,63.9
2018-06-20T10:05:46.508Z,62.8
2018-06-20T10:06:36.564Z,63.4
2018-06-20T10:07:26.333Z,65
2018-06-20T10:08:16.447Z,66.2
2018-06-20T10:09:06.748Z,66.7
2018-06-20T10:09:56.525Z,65.8
2018-06-20T10:10:46.013Z,64.5
2018-06-20T10:11:36.672Z,64.8
2018-06-20T10:12:26.694Z,65.8
2018-06-20T10:13:16.970Z,66.7
2018-06-20T10:14:07.148Z,67.6
2018-06-20T10:14:56.604Z,68.1
2018-06-20T10:15:46.995Z,68.2
2018-06-20T10:16:37.375Z,68.1
2018-06-20T10:17:27.407Z,67.9
2018-06-20T10:18:16.879Z,68
2018-06-20T10:19:07.518Z,68.2
2018-06-20T10:19:57.304Z,67.8
2018-06-20T10:20:47.362Z,66.7
2018-06-20T10:21:37.437Z,66.6
2018-06-20T10:22:27.493Z,67.3
2018-06-20T10:23:17.548Z,68.1
2018-06-20T10:24:07.903Z,68.5
2018-06-20T10:24:57.687Z,68.8
2018-06-20T10:25:47.759Z,69
2018-06-20T10:26:37.528Z,69.1
2018-06-20T10:27:27.631Z,69.1
2018-06-20T10:28:17.956Z,69.2
2018-06-20T10:29:08.304Z,69.5
2018-06-20T10:29:58.106Z,69.6
2018-06-20T10:30:47.865Z,69.8
2018-06-20T10:31:38.481Z,69.9
2018-06-20T10:32:28.553Z,70.3
2018-06-20T10:33:18.370Z,70.3
2018-06-20T10:34:08.958Z,70.1
2018-06-20T10:34:58.754Z,69.4
2018-06-20T10:35:48.816Z,68.9
2018-06-20T10:36:38.592Z,68.3
2018-06-20T10:37:28.671Z,68.6
2018-06-20T10:38:18.996Z,69.2
2018-06-20T10:39:08.783Z,69.7
2018-06-20T10:39:59.077Z,70.1
2018-06-20T10:40:48.907Z,70.3
2018-06-20T10:41:39.291Z,70.1
2018-06-20T10:42:29.330Z,69.8
2018-06-20T10:43:19.413Z,69.6
2018-06-20T10:44:09.195Z,69.6
2018-06-20T10:44:59.532Z,69.9
2018-06-20T10:45:49.601Z,70.2
2018-06-20T10:46:39.375Z,70.3
2018-06-20T10:47:29.717Z,70.3
2018-06-20T10:48:19.212Z,70.3
2018-06-20T10:49:09.594Z,70.3
2018-06-20T10:49:59.935Z,70.4
2018-06-20T10:50:49.675Z,70.6
2018-06-20T10:51:40.032Z,70.7
2018-06-20T10:52:29.805Z,70.3
2018-06-20T10:53:19.623Z,69.1
2018-06-20T10:54:10.221Z,67.9
2018-06-20T10:55:00.269Z,67.6
2018-06-20T10:55:50.364Z,68.4
2018-06-20T10:56:40.417Z,68.4
2018-06-20T10:57:30.492Z,67.7
2018-06-20T10:58:20.630Z,66.3
2018-06-20T10:59:10.352Z,64.7
2018-06-20T11:00:00.388Z,63.7
2018-06-20T11:00:50.737Z,64.2
2018-06-20T11:01:40.256Z,65.8
2018-06-20T11:02:30.860Z,67.2
2018-06-20T11:03:20.662Z,67.8
2018-06-20T11:04:10.998Z,67.8
2018-06-20T11:05:00.774Z,67.5
2018-06-20T11:05:50.842Z,67.3
2018-06-20T11:06:41.223Z,67.5
2018-06-20T11:07:30.959Z,67.9
2018-06-20T11:08:21.346Z,68.4
2018-06-20T11:09:11.389Z,68.9
2018-06-20T11:10:01.144Z,69.2
2018-06-20T11:10:51.499Z,69.3
2018-06-20T11:11:41.599Z,69.2
2018-06-20T11:12:31.613Z,69.1